Time;durP1;ratioP1;P1;durP2;ratioP2;P2;SDS_P1;SDS_P2;PMS_P1;PMS_P2;Temp;Humidity;BMP_temperature;BMP_pressure;BME280_temperature;BME280_humidity;BME280_pressure;Samples;Min_cycle;Max_cycle;Signal;HPM_P1;HPM_P2
2023/07/23 00:00:25;;;;;;;2.43;1.77;;;24.10;91.50;;;;;;4935932;29;20502;-81
2023/07/23 00:02:52;;;;;;;2.30;2.10;;;24.10;91.40;;;;;;4936071;29;20457;-81
2023/07/23 00:05:18;;;;;;;3.80;1.90;;;24.10;91.30;;;;;;4935668;29;20449;-81
2023/07/23 00:07:45;;;;;;;2.17;1.70;;;24.10;91.30;;;;;;4935615;29;20489;-83
2023/07/23 00:10:12;;;;;;;1.93;1.67;;;24.10;91.40;;;;;;4936086;29;20435;-82
2023/07/23 00:12:40;;;;;;;3.57;1.60;;;24.10;91.50;;;;;;4936271;29;20447;-82
2023/07/23 00:15:07;;;;;;;1.63;1.53;;;24.10;91.50;;;;;;4936272;29;20451;-82
2023/07/23 00:17:34;;;;;;;2.60;1.77;;;24.10;91.50;;;;;;4935765;29;20457;-82
2023/07/23 00:20:04;;;;;;;2.37;2.17;;;24.10;91.50;;;;;;4935703;29;20500;-81
2023/07/23 00:22:31;;;;;;;2.50;2.17;;;24.10;91.40;;;;;;4935743;29;20545;-82
2023/07/23 00:24:58;;;;;;;2.07;1.80;;;24.10;91.50;;;;;;4935732;29;20940;-81
2023/07/23 00:27:25;;;;;;;2.13;1.77;;;24.10;91.40;;;;;;4935853;29;20946;-82
2023/07/23 00:29:53;;;;;;;2.13;1.80;;;24.10;91.50;;;;;;4935776;29;20447;-81
2023/07/23 00:32:20;;;;;;;1.73;1.63;;;24.10;91.60;;;;;;4935787;29;20447;-81
2023/07/23 00:34:46;;;;;;;1.83;1.50;;;24.10;91.80;;;;;;4935779;29;20438;-81
2023/07/23 00:37:13;;;;;;;1.63;1.50;;;24.10;91.50;;;;;;4935647;29;20443;-81
2023/07/23 00:39:40;;;;;;;1.70;1.60;;;24.10;91.50;;;;;;4935793;29;20497;-81
2023/07/23 00:42:07;;;;;;;1.90;1.57;;;24.10;91.30;;;;;;4935670;29;20447;-82
2023/07/23 00:44:33;;;;;;;2.20;2.00;;;24.10;91.50;;;;;;4935604;29;21025;-81
2023/07/23 00:47:03;;;;;;;1.87;1.73;;;24.10;91.40;;;;;;4935531;29;20446;-81
2023/07/23 00:49:31;;;;;;;2.43;1.80;;;24.10;91.50;;;;;;4935513;29;20447;-82
2023/07/23 00:51:58;;;;;;;2.00;1.50;;;24.10;91.60;;;;;;4935702;29;20497;-81
2023/07/23 00:54:25;;;;;;;2.33;1.67;;;24.10;91.80;;;;;;4935745;29;20439;-81
2023/07/23 00:56:53;;;;;;;3.83;1.70;;;24.10;91.80;;;;;;4937120;29;20440;-81
2023/07/23 00:59:20;;;;;;;2.10;1.67;;;24.10;92.10;;;;;;4938939;29;20453;-81
2023/07/23 01:01:48;;;;;;;1.90;1.70;;;24.10;91.80;;;;;;4938977;29;20504;-81
2023/07/23 01:04:17;;;;;;;2.13;1.93;;;24.10;91.80;;;;;;4938978;29;20451;-81
2023/07/23 01:06:45;;;;;;;2.40;2.20;;;24.10;91.60;;;;;;4938730;29;20803;-82
2023/07/23 01:09:13;;;;;;;1.73;1.63;;;24.10;91.70;;;;;;4938782;29;20455;-81
2023/07/23 01:11:40;;;;;;;1.60;1.47;;;24.10;91.80;;;;;;4938888;29;20450;-81
2023/07/23 01:14:07;;;;;;;2.23;2.03;;;24.10;91.80;;;;;;4938594;29;20452;-81
2023/07/23 01:16:34;;;;;;;2.00;1.80;;;24.10;91.80;;;;;;4938674;29;20446;-82
2023/07/23 01:19:02;;;;;;;1.70;1.60;;;24.10;91.90;;;;;;4938538;29;20990;-81
2023/07/23 01:21:30;;;;;;;2.43;1.90;;;24.10;91.90;;;;;;4938383;29;20542;-82
2023/07/23 01:23:58;;;;;;;2.07;1.70;;;24.10;92.10;;;;;;4938419;29;20451;-81
2023/07/23 01:26:25;;;;;;;1.70;1.60;;;24.10;92.10;;;;;;4938638;29;20458;-81
2023/07/23 01:28:51;;;;;;;1.80;1.50;;;24.10;92.00;;;;;;4938502;29;20443;-82
2023/07/23 01:31:18;;;;;;;2.10;1.43;;;24.10;92.10;;;;;;4938557;29;20485;-81
2023/07/23 01:33:46;;;;;;;1.83;1.67;;;24.10;92.20;;;;;;4938718;29;20799;-81
2023/07/23 01:36:14;;;;;;;1.80;1.63;;;24.10;92.00;;;;;;4938415;29;20493;-81
2023/07/23 01:38:41;;;;;;;2.83;1.43;;;24.10;92.10;;;;;;4938384;29;20443;-81
2023/07/23 01:41:09;;;;;;;1.70;1.60;;;24.10;92.10;;;;;;4938341;29;20486;-82
2023/07/23 01:43:37;;;;;;;1.80;1.30;;;24.10;92.00;;;;;;4938031;29;20447;-81
2023/07/23 01:46:04;;;;;;;2.43;1.70;;;24.10;92.00;;;;;;4938178;29;20454;-81
2023/07/23 01:48:30;;;;;;;2.40;1.90;;;24.10;91.90;;;;;;4938095;29;20447;-82
2023/07/23 01:50:57;;;;;;;1.80;1.50;;;24.10;91.90;;;;;;4938319;29;20450;-82
2023/07/23 01:53:24;;;;;;;2.80;1.97;;;24.10;92.00;;;;;;4938023;29;20458;-81
2023/07/23 01:55:51;;;;;;;1.57;1.43;;;24.10;92.10;;;;;;4937963;29;20447;-82
2023/07/23 01:58:19;;;;;;;1.97;1.50;;;24.10;92.10;;;;;;4938126;29;20803;-81
2023/07/23 02:00:45;;;;;;;2.23;2.03;;;24.10;92.20;;;;;;4937859;29;20498;-81
2023/07/23 02:03:12;;;;;;;1.60;1.50;;;24.10;92.20;;;;;;4937781;29;20447;-81
2023/07/23 02:05:39;;;;;;;2.23;1.70;;;24.10;92.20;;;;;;4937926;29;20536;-81
2023/07/23 02:08:06;;;;;;;1.70;1.60;;;24.10;92.10;;;;;;4936657;29;20478;-81
2023/07/23 02:10:33;;;;;;;2.17;1.97;;;24.10;92.20;;;;;;4937783;29;20957;-82
2023/07/23 02:12:59;;;;;;;2.17;1.97;;;24.10;92.20;;;;;;4937508;29;20973;-81
2023/07/23 02:15:28;;;;;;;1.50;1.40;;;24.10;92.30;;;;;;4937788;29;20923;-81
2023/07/23 02:17:54;;;;;;;1.93;1.57;;;24.10;92.20;;;;;;4937549;29;20948;-82
2023/07/23 02:20:21;;;;;;;1.60;1.50;;;24.10;92.10;;;;;;4937457;29;20518;-81
2023/07/23 02:22:48;;;;;;;1.83;1.60;;;24.10;92.10;;;;;;4937389;29;20451;-81
2023/07/23 02:25:15;;;;;;;2.17;1.93;;;24.10;92.20;;;;;;4937178;29;20503;-82
2023/07/23 02:27:42;;;;;;;1.67;1.57;;;24.10;92.30;;;;;;4937430;29;20957;-82
2023/07/23 02:30:10;;;;;;;1.43;1.33;;;24.10;92.30;;;;;;4937503;29;20905;-81
2023/07/23 02:32:38;;;;;;;1.60;1.50;;;24.10;92.20;;;;;;4937578;29;20447;-81
2023/07/23 02:35:06;;;;;;;1.40;1.30;;;24.00;92.20;;;;;;4937465;29;20438;-81
2023/07/23 02:37:32;;;;;;;2.00;1.80;;;24.10;92.20;;;;;;4937246;29;20451;-81
2023/07/23 02:39:59;;;;;;;1.80;1.70;;;24.10;92.40;;;;;;4937055;29;20451;-84
2023/07/23 02:42:26;;;;;;;1.60;1.50;;;24.00;92.20;;;;;;4937230;29;20926;-82
2023/07/23 02:44:53;;;;;;;1.90;1.67;;;24.10;92.30;;;;;;4937210;29;20449;-81
2023/07/23 02:47:19;;;;;;;1.73;1.50;;;24.10;92.10;;;;;;4937125;29;20448;-81
2023/07/23 02:49:48;;;;;;;2.10;1.83;;;24.10;92.30;;;;;;4937435;29;20443;-81
2023/07/23 02:52:15;;;;;;;1.53;1.43;;;24.10;92.20;;;;;;4937328;29;20799;-81
2023/07/23 02:54:43;;;;;;;1.80;1.67;;;24.20;92.30;;;;;;4937106;29;20457;-81
2023/07/23 02:57:09;;;;;;;1.70;1.50;;;24.10;92.10;;;;;;4936868;29;20464;-81
2023/07/23 02:59:36;;;;;;;1.50;1.40;;;24.10;92.20;;;;;;4936900;29;20788;-81
2023/07/23 03:02:03;;;;;;;1.50;1.40;;;24.10;92.20;;;;;;4936806;29;20494;-81
2023/07/23 03:04:30;;;;;;;1.77;1.67;;;24.00;92.20;;;;;;4936955;29;20933;-82
2023/07/23 03:06:58;;;;;;;2.03;1.83;;;24.10;92.40;;;;;;4936454;29;20482;-81
2023/07/23 03:09:25;;;;;;;1.90;1.80;;;24.00;92.30;;;;;;4936907;29;20983;-88
2023/07/23 03:11:52;;;;;;;1.90;1.80;;;24.10;92.20;;;;;;4936849;29;20442;-81
2023/07/23 03:14:18;;;;;;;1.70;1.60;;;24.00;92.20;;;;;;4936546;29;20449;-81
2023/07/23 03:16:45;;;;;;;1.70;1.60;;;24.10;92.20;;;;;;4936363;29;20441;-81
2023/07/23 03:19:12;;;;;;;1.40;1.30;;;24.00;92.00;;;;;;4936220;29;20546;-82
2023/07/23 03:21:39;;;;;;;2.00;1.50;;;24.10;92.20;;;;;;4936326;29;20500;-83
2023/07/23 03:24:08;;;;;;;2.50;2.30;;;24.00;92.00;;;;;;4936387;29;20782;-81
2023/07/23 03:26:34;;;;;;;2.00;1.90;;;24.10;92.10;;;;;;4936265;29;20810;-83
2023/07/23 03:29:01;;;;;;;2.23;2.03;;;24.10;92.10;;;;;;4936384;29;20472;-81
2023/07/23 03:31:28;;;;;;;1.97;1.87;;;24.10;92.10;;;;;;4936268;29;20466;-81
2023/07/23 03:33:55;;;;;;;1.93;1.80;;;24.00;92.00;;;;;;4936394;29;20447;-81
2023/07/23 03:36:21;;;;;;;1.70;1.60;;;24.00;92.00;;;;;;4936230;29;20446;-82
2023/07/23 03:38:50;;;;;;;1.60;1.43;;;24.00;92.00;;;;;;4936232;29;20452;-81
2023/07/23 03:41:18;;;;;;;1.43;1.33;;;24.00;92.00;;;;;;4936121;29;20519;-81
2023/07/23 03:43:45;;;;;;;1.70;1.60;;;24.10;92.00;;;;;;4936387;29;20439;-81
2023/07/23 03:46:11;;;;;;;1.43;1.33;;;24.00;92.10;;;;;;4935890;29;20474;-81
2023/07/23 03:48:38;;;;;;;1.60;1.50;;;24.00;92.10;;;;;;4936189;29;20443;-81
2023/07/23 03:51:05;;;;;;;3.43;2.13;;;24.00;92.00;;;;;;4936324;29;20788;-81
2023/07/23 03:53:32;;;;;;;2.00;1.90;;;24.00;91.90;;;;;;4936230;29;20446;-81
2023/07/23 03:55:58;;;;;;;1.80;1.70;;;24.00;92.00;;;;;;4936160;29;20442;-81
2023/07/23 03:58:27;;;;;;;1.50;1.40;;;24.10;92.00;;;;;;4936260;29;20457;-82
2023/07/23 04:00:53;;;;;;;1.70;1.60;;;24.10;92.10;;;;;;4935955;29;20571;-82
2023/07/23 04:03:20;;;;;;;2.30;1.87;;;24.10;92.10;;;;;;4935859;29;20458;-81
2023/07/23 04:05:47;;;;;;;2.00;1.90;;;24.00;92.00;;;;;;4935610;29;20450;-82
2023/07/23 04:08:13;;;;;;;1.77;1.67;;;24.00;92.00;;;;;;4935854;29;20486;-82
2023/07/23 04:10:40;;;;;;;2.40;2.20;;;24.00;92.00;;;;;;4935652;29;20455;-82
2023/07/23 04:13:07;;;;;;;2.10;1.77;;;24.00;92.00;;;;;;4936026;29;20445;-83
2023/07/23 04:15:38;;;;;;;1.57;1.47;;;24.10;92.00;;;;;;4935877;29;20449;-82
2023/07/23 04:18:13;;;;;;;2.07;1.90;;;24.00;91.90;;;;;;4935929;29;20439;-84
2023/07/23 04:20:40;;;;;;;1.93;1.73;;;24.00;92.00;;;;;;4935703;29;20999;-85
2023/07/23 04:23:07;;;;;;;1.80;1.53;;;24.00;91.90;;;;;;4935929;29;20795;-82
2023/07/23 04:25:34;;;;;;;2.10;1.90;;;24.00;91.90;;;;;;4935795;29;20450;-82
2023/07/23 04:28:00;;;;;;;1.77;1.67;;;24.00;92.00;;;;;;4935963;29;20476;-83
2023/07/23 04:30:28;;;;;;;1.73;1.63;;;24.00;91.90;;;;;;4935583;29;20470;-82
2023/07/23 04:32:57;;;;;;;1.80;1.70;;;24.10;92.00;;;;;;4939455;29;20471;-82
2023/07/23 04:35:24;;;;;;;1.87;1.70;;;24.00;91.90;;;;;;4939794;29;20459;-82
2023/07/23 04:37:51;;;;;;;1.97;1.87;;;24.00;91.80;;;;;;4939444;29;20477;-84
2023/07/23 04:40:17;;;;;;;1.60;1.50;;;24.10;91.90;;;;;;4939351;29;20803;-83
2023/07/23 04:42:44;;;;;;;2.13;1.93;;;24.00;91.80;;;;;;4939368;29;20497;-84
2023/07/23 04:45:11;;;;;;;1.87;1.77;;;24.00;91.80;;;;;;4939391;29;20806;-82
2023/07/23 04:47:40;;;;;;;1.60;1.50;;;24.10;92.00;;;;;;4939502;29;20443;-82
2023/07/23 04:50:08;;;;;;;1.70;1.60;;;24.00;91.90;;;;;;4939307;29;20479;-87
2023/07/23 04:52:35;;;;;;;1.67;1.57;;;24.10;92.00;;;;;;4939662;29;20455;-84
2023/07/23 04:55:02;;;;;;;1.77;1.67;;;24.00;91.90;;;;;;4939325;29;20443;-84
2023/07/23 04:57:29;;;;;;;1.63;1.53;;;24.00;91.90;;;;;;4939331;29;20458;-86
2023/07/23 04:59:56;;;;;;;2.10;2.00;;;24.00;91.90;;;;;;4939372;29;20467;-84
2023/07/23 05:02:23;;;;;;;1.93;1.83;;;24.00;91.90;;;;;;4939164;29;20496;-84
2023/07/23 05:04:50;;;;;;;1.80;1.70;;;24.00;92.00;;;;;;4938987;29;20474;-84
2023/07/23 05:07:18;;;;;;;1.73;1.63;;;24.00;91.90;;;;;;4938939;29;20573;-81
2023/07/23 05:09:45;;;;;;;1.57;1.47;;;24.00;91.90;;;;;;4938968;29;20447;-87
2023/07/23 05:12:11;;;;;;;2.57;2.20;;;24.10;92.00;;;;;;4938958;29;20467;-86
2023/07/23 05:14:38;;;;;;;1.77;1.67;;;24.00;92.00;;;;;;4939048;29;20453;-84
2023/07/23 05:17:05;;;;;;;1.80;1.70;;;24.10;92.10;;;;;;4939223;29;20450;-84
2023/07/23 05:19:32;;;;;;;1.93;1.80;;;24.00;92.10;;;;;;4938967;29;20451;-86
2023/07/23 05:21:59;;;;;;;2.40;2.20;;;24.00;92.20;;;;;;4938691;29;20487;-84
2023/07/23 05:24:27;;;;;;;1.87;1.60;;;24.00;92.20;;;;;;4938420;29;20453;-82
2023/07/23 05:26:53;;;;;;;1.90;1.80;;;24.10;92.10;;;;;;4938607;29;20447;-82
2023/07/23 05:29:20;;;;;;;1.87;1.67;;;24.10;92.00;;;;;;4938534;29;20450;-81
2023/07/23 05:31:47;;;;;;;1.63;1.53;;;24.10;92.20;;;;;;4938871;29;20448;-87
2023/07/23 05:34:14;;;;;;;1.87;1.77;;;24.10;92.10;;;;;;4938611;29;20810;-85
2023/07/23 05:36:41;;;;;;;2.03;1.93;;;24.10;92.00;;;;;;4938419;29;20800;-82
2023/07/23 05:39:08;;;;;;;1.43;1.33;;;24.00;91.90;;;;;;4938393;29;20812;-82
2023/07/23 05:41:37;;;;;;;1.57;1.47;;;24.10;92.00;;;;;;4938141;29;20490;-83
2023/07/23 05:44:04;;;;;;;3.10;1.77;;;24.20;92.20;;;;;;4938049;29;20446;-84
2023/07/23 05:46:30;;;;;;;1.93;1.83;;;24.00;92.20;;;;;;4937987;29;20827;-82
2023/07/23 05:48:57;;;;;;;1.90;1.60;;;24.00;92.30;;;;;;4938260;29;20447;-81
2023/07/23 05:51:24;;;;;;;1.90;1.80;;;24.00;92.30;;;;;;4938055;29;20456;-84
2023/07/23 05:53:51;;;;;;;1.73;1.63;;;24.10;92.40;;;;;;4938017;29;20449;-82
2023/07/23 05:56:17;;;;;;;2.73;1.87;;;24.10;92.50;;;;;;4937855;29;20451;-85
2023/07/23 05:58:45;;;;;;;2.27;2.10;;;24.00;92.40;;;;;;4938028;29;20784;-82
2023/07/23 06:01:12;;;;;;;1.90;1.80;;;24.10;92.50;;;;;;4937861;29;20494;-83
2023/07/23 06:03:39;;;;;;;1.50;1.40;;;24.10;92.50;;;;;;4938059;29;20445;-82
2023/07/23 06:06:06;;;;;;;1.87;1.70;;;24.10;92.40;;;;;;4938037;29;20443;-81
2023/07/23 06:08:33;;;;;;;1.70;1.60;;;24.10;92.50;;;;;;4938017;29;20478;-90
2023/07/23 06:10:59;;;;;;;1.90;1.80;;;24.00;92.40;;;;;;4938191;29;20446;-82
2023/07/23 06:13:26;;;;;;;1.97;1.70;;;24.10;92.50;;;;;;4938158;29;20449;-82
2023/07/23 06:15:54;;;;;;;1.93;1.83;;;24.10;92.60;;;;;;4937942;29;20465;-87
2023/07/23 06:18:22;;;;;;;1.97;1.77;;;24.10;92.50;;;;;;4937808;29;20446;-82
2023/07/23 06:20:48;;;;;;;1.80;1.60;;;24.10;92.70;;;;;;4937583;29;20507;-86
2023/07/23 06:23:15;;;;;;;1.80;1.70;;;24.10;92.50;;;;;;4937666;29;20623;-84
2023/07/23 06:25:42;;;;;;;1.90;1.80;;;24.10;92.50;;;;;;4937654;29;20466;-81
2023/07/23 06:28:09;;;;;;;1.70;1.60;;;24.10;92.50;;;;;;4937471;29;20469;-81
2023/07/23 06:30:36;;;;;;;1.77;1.67;;;24.10;92.50;;;;;;4937386;29;20478;-83
2023/07/23 06:33:04;;;;;;;2.03;1.83;;;24.10;92.40;;;;;;4937278;29;20513;-83
2023/07/23 06:35:37;;;;;;;1.53;1.43;;;24.10;92.60;;;;;;4937001;29;20466;-81
2023/07/23 06:38:03;;;;;;;1.60;1.50;;;24.10;92.50;;;;;;4937485;29;20453;-81
2023/07/23 06:40:30;;;;;;;2.07;1.87;;;24.10;92.40;;;;;;4937011;29;20542;-81
2023/07/23 06:42:57;;;;;;;1.60;1.50;;;24.10;92.60;;;;;;4937100;29;20499;-81
2023/07/23 06:45:24;;;;;;;1.40;1.30;;;24.20;92.50;;;;;;4937082;29;20453;-81
2023/07/23 06:47:51;;;;;;;1.40;1.30;;;24.20;92.50;;;;;;4936904;29;20458;-81
2023/07/23 06:50:19;;;;;;;1.60;1.50;;;24.20;92.50;;;;;;4937467;29;20457;-85
2023/07/23 06:52:46;;;;;;;1.70;1.60;;;24.10;92.50;;;;;;4937391;29;20454;-84
2023/07/23 06:55:13;;;;;;;1.83;1.63;;;24.10;92.50;;;;;;4936710;29;21001;-85
2023/07/23 06:57:39;;;;;;;2.13;1.80;;;24.20;92.60;;;;;;4937260;29;20538;-85
2023/07/23 07:00:07;;;;;;;1.70;1.60;;;24.10;92.60;;;;;;4936826;29;20469;-86
2023/07/23 07:02:35;;;;;;;3.70;1.83;;;24.20;92.20;;;;;;4936722;29;21016;-86
2023/07/23 07:05:02;;;;;;;2.13;1.80;;;24.20;91.90;;;;;;4936896;29;20454;-85
2023/07/23 07:07:30;;;;;;;3.10;1.93;;;24.10;91.70;;;;;;4936876;29;20844;-85
2023/07/23 07:09:57;;;;;;;2.87;1.80;;;24.20;91.60;;;;;;4937111;29;20443;-85
2023/07/23 07:12:25;;;;;;;2.07;1.90;;;24.20;91.60;;;;;;4936617;29;20450;-85
2023/07/23 07:14:52;;;;;;;4.37;2.40;;;24.10;91.50;;;;;;4936398;29;20952;-84
2023/07/23 07:17:19;;;;;;;2.30;2.10;;;24.10;91.40;;;;;;4936459;29;20460;-86
2023/07/23 07:19:46;;;;;;;5.67;2.10;;;24.10;91.20;;;;;;4936842;29;20802;-85
2023/07/23 07:22:12;;;;;;;4.73;2.27;;;24.10;91.10;;;;;;4936873;29;20482;-85
2023/07/23 07:24:41;;;;;;;2.30;2.10;;;24.10;91.20;;;;;;4936569;29;20941;-85
2023/07/23 07:27:10;;;;;;;3.93;2.67;;;24.10;91.10;;;;;;4936730;29;21017;-87
2023/07/23 07:29:41;;;;;;;3.47;2.43;;;24.10;91.10;;;;;;4936811;29;20472;-88
2023/07/23 07:32:08;;;;;;;2.43;2.03;;;24.10;91.10;;;;;;4936495;29;20449;-86
2023/07/23 07:34:36;;;;;;;2.37;2.17;;;24.10;91.00;;;;;;4936569;29;20445;-86
2023/07/23 07:37:03;;;;;;;2.57;2.03;;;24.10;90.90;;;;;;4936436;29;20458;-86
2023/07/23 07:39:30;;;;;;;2.60;2.40;;;24.10;91.10;;;;;;4936135;29;20434;-86
2023/07/23 07:41:58;;;;;;;2.30;2.10;;;24.10;91.00;;;;;;4936279;29;20986;-85
2023/07/23 07:44:25;;;;;;;2.70;2.50;;;24.10;91.10;;;;;;4935767;29;20458;-85
2023/07/23 07:46:52;;;;;;;4.10;2.73;;;24.10;91.20;;;;;;4935900;29;20458;-85
2023/07/23 07:49:19;;;;;;;2.27;2.13;;;24.10;91.00;;;;;;4935750;29;20533;-86
2023/07/23 07:51:48;;;;;;;4.40;2.73;;;24.00;90.90;;;;;;4935489;29;21068;-86
2023/07/23 07:54:15;;;;;;;3.60;2.77;;;24.10;91.10;;;;;;4942849;29;20484;-88
2023/07/23 07:56:43;;;;;;;2.70;2.50;;;24.10;91.00;;;;;;4955632;29;20449;-87
2023/07/23 07:59:12;;;;;;;2.87;2.27;;;24.10;91.10;;;;;;4954987;29;20889;-86
2023/07/23 08:01:39;;;;;;;2.80;2.60;;;24.10;91.20;;;;;;4956234;29;20798;-89
2023/07/23 08:04:07;;;;;;;2.83;2.63;;;24.10;91.30;;;;;;4956931;29;20449;-89
2023/07/23 08:06:34;;;;;;;2.90;2.67;;;24.10;91.40;;;;;;4956566;28;20453;-86
2023/07/23 08:09:03;;;;;;;6.10;2.47;;;24.10;91.60;;;;;;4959070;29;20462;-87
2023/07/23 08:11:31;;;;;;;2.73;2.50;;;24.20;91.80;;;;;;4954489;29;20447;-91
2023/07/23 08:14:00;;;;;;;4.40;2.23;;;24.10;91.70;;;;;;4940008;29;20439;-88
2023/07/23 08:16:29;;;;;;;3.10;2.10;;;24.10;91.60;;;;;;4939686;29;20442;-88
2023/07/23 08:18:56;;;;;;;3.67;2.50;;;24.20;91.60;;;;;;4939884;29;20447;-88
2023/07/23 08:21:24;;;;;;;1.93;1.73;;;24.20;91.70;;;;;;4939289;29;20518;-88
2023/07/23 08:23:51;;;;;;;2.60;2.40;;;24.20;91.90;;;;;;4938761;29;20512;-84
2023/07/23 08:26:21;;;;;;;2.63;2.43;;;24.20;92.00;;;;;;4939045;29;20453;-85
2023/07/23 08:28:51;;;;;;;3.37;1.90;;;24.20;92.00;;;;;;4938991;29;20522;-83
2023/07/23 08:31:19;;;;;;;2.90;2.27;;;24.20;92.10;;;;;;4939952;29;20445;-86
2023/07/23 08:33:48;;;;;;;2.30;2.10;;;24.20;92.00;;;;;;4940064;29;20466;-85
2023/07/23 08:36:16;;;;;;;5.83;2.00;;;24.20;92.10;;;;;;4939088;29;20449;-82
2023/07/23 08:38:44;;;;;;;5.53;2.67;;;24.10;92.00;;;;;;4938611;29;20443;-82
2023/07/23 08:41:22;;;;;;;2.90;2.00;;;24.20;92.10;;;;;;4938196;29;20443;-82
2023/07/23 08:44:15;;;;;;;2.33;2.10;;;24.20;92.00;;;;;;4938497;29;20994;-82
2023/07/23 08:46:45;;;;;;;3.97;2.73;;;24.20;92.10;;;;;;4938478;29;20787;-82
2023/07/23 08:49:16;;;;;;;2.07;1.60;;;24.20;92.00;;;;;;4938315;29;20454;-82
2023/07/23 08:51:44;;;;;;;2.37;2.17;;;24.20;92.20;;;;;;4937955;29;20452;-82
2023/07/23 08:54:13;;;;;;;2.43;1.93;;;24.20;92.20;;;;;;4937684;29;20454;-82
2023/07/23 08:56:41;;;;;;;4.73;2.00;;;24.20;92.30;;;;;;4938015;29;20451;-82
2023/07/23 08:59:08;;;;;;;4.13;2.83;;;24.20;92.20;;;;;;4937427;29;20482;-82
2023/07/23 09:01:37;;;;;;;1.97;1.87;;;24.20;92.30;;;;;;4937675;29;20447;-82
2023/07/23 09:04:05;;;;;;;2.10;1.90;;;24.20;92.20;;;;;;4937708;29;20499;-82
2023/07/23 09:06:33;;;;;;;2.30;2.10;;;24.20;92.20;;;;;;4938364;29;20537;-83
2023/07/23 09:09:07;;;;;;;2.37;2.20;;;24.20;92.20;;;;;;4938665;29;20474;-82
2023/07/23 09:11:35;;;;;;;2.30;2.13;;;24.20;92.30;;;;;;4938594;29;20810;-83
2023/07/23 09:14:07;;;;;;;2.23;1.97;;;24.20;92.40;;;;;;4938850;29;20452;-82
2023/07/23 09:16:36;;;;;;;2.53;2.00;;;24.20;92.20;;;;;;4938474;29;20447;-82
2023/07/23 09:19:03;;;;;;;2.33;2.03;;;24.20;92.80;;;;;;4938585;29;20931;-82
2023/07/23 09:21:30;;;;;;;3.00;2.20;;;24.20;92.40;;;;;;4938592;29;20451;-82
2023/07/23 09:24:02;;;;;;;2.10;1.90;;;24.20;92.50;;;;;;4938378;29;20498;-82
2023/07/23 09:26:29;;;;;;;1.60;1.50;;;24.20;92.60;;;;;;4938924;29;20800;-82
2023/07/23 09:28:59;;;;;;;3.10;1.90;;;24.20;92.60;;;;;;4938487;29;20455;-83
2023/07/23 09:31:27;;;;;;;2.00;1.90;;;24.20;92.60;;;;;;4938706;29;20450;-82
2023/07/23 09:33:56;;;;;;;1.90;1.77;;;24.20;92.50;;;;;;4938484;29;20535;-82
2023/07/23 09:36:23;;;;;;;2.40;2.13;;;24.20;92.80;;;;;;4938453;29;20451;-82
2023/07/23 09:38:54;;;;;;;1.90;1.57;;;24.30;92.80;;;;;;4938523;29;20442;-82
2023/07/23 09:41:23;;;;;;;3.63;2.20;;;24.20;92.50;;;;;;4938312;29;20930;-82
2023/07/23 09:43:50;;;;;;;1.80;1.70;;;24.20;92.50;;;;;;4938241;29;20494;-82
2023/07/23 09:46:17;;;;;;;1.80;1.70;;;24.20;92.60;;;;;;4938586;29;20837;-82
2023/07/23 09:48:48;;;;;;;1.93;1.80;;;24.20;92.50;;;;;;4938444;29;20450;-82
2023/07/23 09:51:15;;;;;;;1.70;1.60;;;24.20;92.50;;;;;;4938222;29;20446;-82
2023/07/23 09:53:45;;;;;;;2.17;1.97;;;24.20;93.00;;;;;;4938340;29;20450;-82
2023/07/23 09:56:13;;;;;;;2.07;1.87;;;24.20;92.80;;;;;;4938049;29;20478;-83
2023/07/23 09:58:43;;;;;;;1.73;1.63;;;24.20;92.80;;;;;;4938199;29;20543;-82
2023/07/23 10:01:10;;;;;;;2.00;1.80;;;24.20;93.00;;;;;;4938229;29;20453;-82
2023/07/23 10:03:38;;;;;;;2.07;1.87;;;24.20;93.00;;;;;;4937816;29;20491;-82
2023/07/23 10:06:05;;;;;;;1.60;1.47;;;24.20;92.80;;;;;;4937732;29;20443;-82
2023/07/23 10:08:35;;;;;;;2.27;1.80;;;24.20;93.00;;;;;;4937697;29;20478;-82
2023/07/23 10:11:01;;;;;;;2.20;1.80;;;24.20;93.20;;;;;;4937949;29;20481;-82
2023/07/23 10:13:28;;;;;;;2.03;1.83;;;24.20;93.10;;;;;;4937812;29;20444;-82
2023/07/23 10:15:57;;;;;;;2.47;1.80;;;24.20;93.20;;;;;;4937792;29;20457;-82
2023/07/23 10:18:28;;;;;;;1.90;1.60;;;24.20;93.10;;;;;;4937611;29;20450;-82
2023/07/23 10:20:56;;;;;;;2.33;2.13;;;24.20;92.90;;;;;;4937520;29;20782;-82
2023/07/23 10:23:23;;;;;;;4.73;1.70;;;24.20;93.10;;;;;;4937502;29;20493;-83
2023/07/23 10:26:10;;;;;;;1.77;1.67;;;24.20;93.00;;;;;;4937419;29;20454;-82
2023/07/23 10:28:39;;;;;;;1.70;1.60;;;24.20;93.00;;;;;;4936509;29;20458;-82
2023/07/23 10:31:25;;;;;;;2.30;2.10;;;24.20;93.10;;;;;;4937271;29;20455;-82
2023/07/23 10:33:52;;;;;;;1.90;1.80;;;24.20;93.10;;;;;;4937573;29;20442;-82
2023/07/23 10:36:21;;;;;;;1.70;1.60;;;24.20;93.00;;;;;;4937356;29;20457;-82
2023/07/23 10:39:02;;;;;;;2.07;1.87;;;24.20;93.10;;;;;;4937600;29;20799;-82
2023/07/23 10:41:47;;;;;;;2.93;1.83;;;24.20;93.10;;;;;;4937410;29;20466;-82
2023/07/23 10:44:24;;;;;;;1.70;1.60;;;24.20;93.00;;;;;;4937123;29;20497;-82
2023/07/23 10:46:52;;;;;;;2.30;1.60;;;24.20;93.20;;;;;;4937192;29;20543;-82
2023/07/23 10:49:24;;;;;;;1.40;1.30;;;24.20;93.00;;;;;;4937283;29;20447;-82
2023/07/23 10:51:51;;;;;;;1.77;1.67;;;24.20;92.90;;;;;;4937275;29;20449;-82
2023/07/23 10:54:19;;;;;;;2.20;2.10;;;24.30;93.00;;;;;;4937098;29;20448;-83
2023/07/23 10:56:48;;;;;;;1.80;1.70;;;24.30;93.00;;;;;;4937001;29;20450;-82
2023/07/23 10:59:17;;;;;;;2.10;2.00;;;24.20;93.20;;;;;;4936941;29;20471;-82
2023/07/23 11:01:46;;;;;;;2.03;1.77;;;24.20;92.90;;;;;;4936945;29;20453;-82
2023/07/23 11:04:15;;;;;;;1.60;1.50;;;24.20;92.70;;;;;;4936584;29;20494;-82
2023/07/23 11:06:56;;;;;;;1.83;1.73;;;24.20;93.00;;;;;;4936745;29;20447;-82
2023/07/23 11:09:26;;;;;;;1.40;1.30;;;24.20;92.90;;;;;;4936921;29;20442;-82
2023/07/23 11:11:54;;;;;;;1.90;1.80;;;24.20;93.00;;;;;;4936692;29;20447;-82
2023/07/23 11:14:22;;;;;;;1.57;1.47;;;24.10;92.70;;;;;;4936736;29;20489;-82
2023/07/23 11:16:50;;;;;;;1.47;1.37;;;24.20;92.70;;;;;;4936540;29;20443;-82
2023/07/23 11:19:21;;;;;;;1.60;1.50;;;24.20;92.80;;;;;;4936703;29;20468;-82
2023/07/23 11:21:50;;;;;;;1.70;1.60;;;24.20;93.00;;;;;;4936507;29;20443;-82
2023/07/23 11:24:17;;;;;;;1.40;1.30;;;24.20;92.70;;;;;;4936410;29;20817;-82
2023/07/23 11:26:44;;;;;;;1.77;1.53;;;24.20;92.70;;;;;;4936391;29;20459;-82
2023/07/23 11:29:11;;;;;;;1.90;1.80;;;24.20;92.80;;;;;;4936108;29;20470;-82
2023/07/23 11:31:39;;;;;;;1.97;1.87;;;24.20;92.80;;;;;;4936191;29;20444;-82
2023/07/23 11:34:06;;;;;;;1.60;1.50;;;24.20;93.00;;;;;;4936321;29;20449;-82
2023/07/23 11:36:35;;;;;;;1.63;1.53;;;24.20;92.70;;;;;;4936394;29;20455;-82
2023/07/23 11:39:03;;;;;;;1.60;1.50;;;24.20;92.70;;;;;;4936089;29;20784;-84
2023/07/23 11:41:32;;;;;;;1.67;1.37;;;24.20;93.10;;;;;;4936323;29;20451;-83
2023/07/23 11:44:03;;;;;;;1.50;1.40;;;24.20;92.80;;;;;;4936204;29;20499;-83
2023/07/23 11:46:30;;;;;;;1.70;1.60;;;24.20;92.70;;;;;;4936209;29;20455;-84
2023/07/23 11:48:57;;;;;;;1.70;1.60;;;24.20;92.80;;;;;;4936280;29;20477;-82
2023/07/23 11:51:24;;;;;;;1.90;1.80;;;24.20;92.80;;;;;;4936337;29;20442;-85
2023/07/23 11:53:53;;;;;;;3.43;1.40;;;24.20;93.00;;;;;;4936117;29;20446;-85
2023/07/23 11:56:24;;;;;;;1.60;1.50;;;24.20;92.80;;;;;;4936159;29;20443;-83
2023/07/23 11:58:50;;;;;;;1.53;1.30;;;24.20;92.80;;;;;;4936386;29;20470;-85
2023/07/23 12:01:18;;;;;;;1.70;1.60;;;24.20;92.80;;;;;;4936319;29;20442;-85
2023/07/23 12:03:46;;;;;;;1.30;1.20;;;24.20;92.80;;;;;;4935995;29;21035;-83
2023/07/23 12:06:14;;;;;;;2.17;1.50;;;24.20;92.90;;;;;;4936225;29;20451;-83
2023/07/23 12:08:42;;;;;;;1.90;1.70;;;24.20;93.00;;;;;;4936038;29;20486;-85
2023/07/23 12:11:12;;;;;;;1.50;1.40;;;24.20;92.80;;;;;;4936214;29;20444;-83
2023/07/23 12:13:46;;;;;;;1.53;1.43;;;24.20;92.90;;;;;;4936253;29;20450;-86
2023/07/23 12:16:30;;;;;;;1.50;1.40;;;24.20;93.00;;;;;;4936160;29;20447;-83
2023/07/23 12:19:02;;;;;;;1.50;1.40;;;24.20;93.00;;;;;;4935882;29;20446;-82
2023/07/23 12:21:28;;;;;;;1.50;1.40;;;24.20;93.00;;;;;;4936166;29;20970;-83
2023/07/23 12:23:55;;;;;;;2.90;1.70;;;24.20;93.00;;;;;;4935734;29;20490;-84
2023/07/23 12:26:23;;;;;;;1.80;1.70;;;24.30;93.10;;;;;;4936090;29;20442;-84
2023/07/23 12:28:50;;;;;;;1.87;1.27;;;24.20;93.00;;;;;;4935803;29;20470;-82
2023/07/23 12:31:17;;;;;;;1.90;1.80;;;24.20;93.00;;;;;;4936117;29;20463;-84
2023/07/23 12:33:44;;;;;;;1.30;1.20;;;24.20;93.40;;;;;;4935862;29;20442;-83
2023/07/23 12:36:10;;;;;;;1.63;1.53;;;24.20;93.20;;;;;;4935833;29;20961;-82
2023/07/23 12:38:37;;;;;;;1.40;1.30;;;24.20;93.20;;;;;;4935797;29;20447;-82
2023/07/23 12:41:04;;;;;;;1.63;1.50;;;24.20;93.10;;;;;;4936016;29;20455;-82
2023/07/23 12:43:32;;;;;;;4.50;1.57;;;24.20;93.20;;;;;;4935845;29;20501;-82
2023/07/23 12:45:59;;;;;;;2.03;1.20;;;24.20;93.20;;;;;;4935809;29;20455;-82
2023/07/23 12:48:26;;;;;;;1.33;1.23;;;24.20;93.10;;;;;;4935698;29;20456;-82
2023/07/23 12:50:53;;;;;;;3.60;1.13;;;24.20;93.10;;;;;;4936048;29;20461;-82